Time;durP1;ratioP1;P1;durP2;ratioP2;P2;SDS_P1;SDS_P2;PMS_P1;PMS_P2;Temp;Humidity;BMP_temperature;BMP_pressure;BME280_temperature;BME280_humidity;BME280_pressure;Samples;Min_cycle;Max_cycle;Signal;HPM_P1;HPM_P2
2021/03/29 00:02:02;;;;;;;1.20;0.50;;;;;;;12.91;79.38;100699.53;5052776;28;20099;-48
2021/03/29 00:04:29;;;;;;;1.70;0.43;;;;;;;12.92;79.62;100701.16;5052498;28;20489;-47
2021/03/29 00:06:57;;;;;;;0.70;0.50;;;;;;;12.92;79.54;100709.50;5052710;28;20036;-47
2021/03/29 00:09:25;;;;;;;2.05;0.98;;;;;;;12.92;79.43;100712.28;5059987;28;20044;-52
2021/03/29 00:11:54;;;;;;;1.58;0.40;;;;;;;12.92;79.50;100690.03;5071001;28;20119;-47
2021/03/29 00:14:23;;;;;;;3.40;0.57;;;;;;;12.93;79.35;100713.88;5070177;28;20048;-51
2021/03/29 00:16:51;;;;;;;5.22;0.70;;;;;;;12.97;79.12;100703.66;5072153;28;20076;-48
2021/03/29 00:19:18;;;;;;;1.30;0.50;;;;;;;12.97;79.17;100703.66;5072668;28;20095;-47
2021/03/29 00:21:45;;;;;;;1.42;0.60;;;;;;;12.98;79.13;100716.34;5072177;28;20083;-47
2021/03/29 00:24:12;;;;;;;3.53;0.45;;;;;;;12.98;79.01;100708.03;5070722;28;20075;-50
2021/03/29 00:26:39;;;;;;;2.28;0.70;;;;;;;13.00;79.07;100711.28;5069105;28;20040;-47
2021/03/29 00:29:06;;;;;;;4.53;0.90;;;;;;;13.00;78.86;100719.59;5071568;28;20555;-50
2021/03/29 00:31:32;;;;;;;2.28;0.60;;;;;;;13.00;78.97;100714.06;5071649;28;20079;-51
2021/03/29 00:34:00;;;;;;;4.32;0.50;;;;;;;13.03;78.91;100713.31;5072051;28;20062;-48
2021/03/29 00:36:28;;;;;;;2.42;0.68;;;;;;;13.04;78.76;100710.19;5072023;28;20088;-48
2021/03/29 00:38:55;;;;;;;4.80;0.70;;;;;;;13.05;78.69;100716.53;5071367;28;20052;-47
2021/03/29 00:41:24;;;;;;;5.28;1.10;;;;;;;13.05;78.56;100719.31;5072115;28;20091;-50
2021/03/29 00:43:52;;;;;;;2.85;0.50;;;;;;;13.05;78.47;100711.78;5072010;28;20110;-47
2021/03/29 00:46:19;;;;;;;2.72;0.93;;;;;;;13.06;78.49;100712.56;5070677;28;20136;-48
2021/03/29 00:48:49;;;;;;;1.05;0.70;;;;;;;13.06;78.63;100707.03;5061066;28;20080;-50
2021/03/29 00:51:25;;;;;;;3.13;0.60;;;;;;;13.07;78.74;100700.34;5067894;28;20087;-50
2021/03/29 00:53:56;;;;;;;0.90;0.52;;;;;;;13.07;78.66;100703.13;5070022;28;20132;-47
2021/03/29 00:56:24;;;;;;;3.15;0.70;;;;;;;13.08;78.55;100704.75;5070533;28;20102;-48
2021/03/29 00:58:52;;;;;;;5.82;0.60;;;;;;;13.08;78.62;100701.97;5070117;28;20410;-48
2021/03/29 01:01:23;;;;;;;1.65;0.63;;;;;;;13.08;78.41;100704.75;5071160;28;20052;-48
2021/03/29 01:03:56;;;;;;;1.80;0.43;;;;;;;13.07;78.47;100725.34;5071479;28;20048;-49
2021/03/29 01:06:25;;;;;;;2.17;0.70;;;;;;;13.07;78.58;100714.22;5071896;28;20329;-48
2021/03/29 01:08:56;;;;;;;2.75;0.73;;;;;;;13.07;78.64;100697.56;5070775;28;20045;-47
2021/03/29 01:11:26;;;;;;;2.35;0.70;;;;;;;13.08;78.47;100704.75;5071682;28;20044;-47
2021/03/29 01:14:19;;;;;;;2.50;0.55;;;;;;;13.06;78.55;100713.38;5071499;28;20090;-48
2021/03/29 01:17:05;;;;;;;4.95;0.80;;;;;;;13.06;78.58;100701.47;5060287;28;20083;-48
2021/03/29 01:20:02;;;;;;;3.15;0.60;;;;;;;13.03;78.55;100707.75;5071353;28;20079;-51
2021/03/29 01:22:35;;;;;;;3.90;1.73;;;;;;;13.01;78.68;100716.44;5070272;28;20045;-47
2021/03/29 01:25:14;;;;;;;3.05;0.60;;;;;;;13.02;78.79;100704.19;5070248;28;20131;-48
2021/03/29 01:27:50;;;;;;;2.95;0.50;;;;;;;13.01;78.81;100699.78;5070812;28;20527;-49
2021/03/29 01:30:17;;;;;;;9.25;1.80;;;;;;;13.04;78.77;100693.50;5071529;28;20131;-48
2021/03/29 01:32:45;;;;;;;1.65;0.50;;;;;;;13.04;78.57;100698.25;5071952;28;20447;-48
2021/03/29 01:35:30;;;;;;;6.57;1.40;;;;;;;13.01;78.75;100715.63;5071022;28;20045;-53
2021/03/29 01:37:57;;;;;;;2.47;0.63;;;;;;;13.01;78.76;100701.75;5071060;28;20090;-48
2021/03/29 01:40:24;;;;;;;5.20;1.05;;;;;;;13.01;78.81;100705.34;5071130;28;20078;-48
2021/03/29 01:42:51;;;;;;;2.45;0.55;;;;;;;12.99;78.77;100698.53;5071183;28;20066;-48
2021/03/29 01:45:19;;;;;;;2.33;0.65;;;;;;;12.96;78.92;100710.38;5070393;28;20548;-48
2021/03/29 01:47:46;;;;;;;2.70;0.60;;;;;;;12.94;78.83;100709.94;5071477;28;20129;-48
2021/03/29 01:50:18;;;;;;;3.45;1.00;;;;;;;12.93;79.16;100716.63;5071388;28;20131;-52
2021/03/29 01:52:44;;;;;;;1.80;0.85;;;;;;;12.91;79.16;100702.31;5086641;28;20060;-49
2021/03/29 01:55:12;;;;;;;4.25;1.58;;;;;;;12.89;79.19;100713.00;5070390;28;20062;-51
2021/03/29 01:57:38;;;;;;;6.05;1.52;;;;;;;12.87;79.34;100715.34;5070021;28;20083;-48
2021/03/29 02:00:12;;;;;;;6.13;1.40;;;;;;;12.84;79.37;100706.53;5068579;28;20499;-48
2021/03/29 02:02:39;;;;;;;2.42;0.70;;;;;;;12.86;79.38;100708.16;5069502;28;20125;-48
2021/03/29 02:05:11;;;;;;;2.65;0.88;;;;;;;12.86;79.51;100710.94;5070728;28;20048;-49
2021/03/29 02:07:39;;;;;;;8.57;1.42;;;;;;;12.82;79.40;100708.88;5071105;28;20151;-49
2021/03/29 02:10:12;;;;;;;5.72;1.70;;;;;;;12.80;79.65;100711.22;5070800;28;20052;-49
2021/03/29 02:12:40;;;;;;;4.22;1.58;;;;;;;12.81;79.62;100714.81;5070737;28;20135;-48
2021/03/29 02:15:11;;;;;;;3.35;0.80;;;;;;;12.78;80.00;100713.56;5070596;28;20045;-50
2021/03/29 02:17:39;;;;;;;3.67;0.90;;;;;;;12.78;79.95;100723.84;5070608;28;20091;-49
2021/03/29 02:20:17;;;;;;;4.72;1.15;;;;;;;12.76;80.29;100698.41;5071121;28;20048;-48
2021/03/29 02:22:46;;;;;;;3.33;0.90;;;;;;;12.76;80.02;100715.84;5070721;28;20486;-48
2021/03/29 02:25:14;;;;;;;4.95;2.42;;;;;;;12.76;80.01;100724.19;5070848;28;20099;-48
2021/03/29 02:27:42;;;;;;;3.42;0.90;;;;;;;12.77;79.77;100716.66;5070187;28;20128;-48
2021/03/29 02:30:14;;;;;;;3.95;0.82;;;;;;;12.77;80.39;100719.44;5071031;28;20101;-49
2021/03/29 02:32:44;;;;;;;;;;;;;;;12.73;80.84;100716.56;5071249;28;20048;-49
2021/03/29 02:35:12;;;;;;;5.68;1.27;;;;;;;12.75;80.25;100727.34;5071654;28;19924;-50
2021/03/29 02:37:47;;;;;;;6.18;1.85;;;;;;;12.75;80.36;100730.94;5074153;28;20135;-49
2021/03/29 02:40:15;;;;;;;5.80;1.23;;;;;;;12.76;80.25;100732.53;5073967;28;20080;-49
2021/03/29 02:42:53;;;;;;;7.45;1.70;;;;;;;12.75;80.17;100736.50;5074389;28;20048;-49
2021/03/29 02:45:24;;;;;;;4.93;1.30;;;;;;;12.74;80.53;100732.09;5073598;28;20048;-47
2021/03/29 02:47:54;;;;;;;6.88;1.33;;;;;;;12.76;80.19;100743.63;5074041;28;20068;-47
2021/03/29 02:50:23;;;;;;;4.03;1.40;;;;;;;12.77;80.24;100720.25;5074045;28;20066;-48
2021/03/29 02:52:53;;;;;;;10.77;2.15;;;;;;;12.75;80.43;100728.16;5072871;28;20052;-51
2021/03/29 02:55:21;;;;;;;4.97;1.50;;;;;;;12.76;80.31;100737.31;5067011;28;20068;-49
2021/03/29 02:57:50;;;;;;;7.65;1.52;;;;;;;12.75;80.54;100733.72;5070580;28;20087;-48
2021/03/29 03:00:24;;;;;;;7.28;1.40;;;;;;;12.73;81.14;100722.13;5052328;28;20136;-49
2021/03/29 03:02:54;;;;;;;5.68;1.98;;;;;;;12.73;80.87;100738.03;5069625;28;20127;-50
2021/03/29 03:05:23;;;;;;;7.38;1.15;;;;;;;12.73;80.61;100738.81;5073330;28;20049;-48
2021/03/29 03:07:51;;;;;;;9.80;2.58;;;;;;;12.71;80.75;100732.81;5054074;28;20041;-48
2021/03/29 03:10:17;;;;;;;8.60;2.17;;;;;;;12.71;80.61;100741.13;5058287;28;20067;-48
2021/03/29 03:12:45;;;;;;;11.27;2.17;;;;;;;12.72;80.88;100737.22;5053777;28;20075;-53
2021/03/29 03:15:20;;;;;;;8.73;2.28;;;;;;;12.72;80.95;100750.28;5053215;28;20049;-48
2021/03/29 03:17:46;;;;;;;17.52;2.22;;;;;;;12.73;80.72;100740.81;5059821;28;20135;-48
2021/03/29 03:20:15;;;;;;;13.70;3.55;;;;;;;12.72;80.88;100737.22;5073482;28;20203;-48
2021/03/29 03:23:14;;;;;;;9.35;2.05;;;;;;;12.73;81.10;100749.91;5073346;28;20044;-49
2021/03/29 03:25:47;;;;;;;9.15;2.17;;;;;;;12.74;81.02;100739.63;5062622;28;20466;-49
2021/03/29 03:28:17;;;;;;;7.68;2.00;;;;;;;12.74;80.81;100751.53;5073175;28;20051;-48
2021/03/29 03:30:47;;;;;;;7.13;1.73;;;;;;;12.76;80.73;100757.53;5073305;28;20052;-48
2021/03/29 03:33:15;;;;;;;8.30;1.90;;;;;;;12.77;80.77;100766.69;5073369;28;20072;-48
2021/03/29 03:35:43;;;;;;;11.65;2.30;;;;;;;12.77;80.87;100767.50;5072996;28;20060;-49
2021/03/29 03:38:16;;;;;;;3.28;1.75;;;;;;;12.79;80.95;100748.47;5072274;28;20566;-48
2021/03/29 03:40:45;;;;;;;9.55;2.20;;;;;;;12.78;80.88;100769.13;5068523;28;20154;-49
2021/03/29 03:43:15;;;;;;;10.73;1.95;;;;;;;12.78;80.85;100769.13;5053279;28;20167;-49
2021/03/29 03:45:45;;;;;;;10.45;2.40;;;;;;;12.79;80.91;100781.00;5067525;28;20135;-47
2021/03/29 03:48:13;;;;;;;9.90;2.08;;;;;;;12.78;80.94;100780.22;5067291;28;20075;-48
2021/03/29 03:50:41;;;;;;;12.65;2.50;;;;;;;12.78;80.98;100773.84;5065871;28;20082;-47
2021/03/29 03:53:08;;;;;;;11.68;2.20;;;;;;;12.78;80.62;100791.34;5072823;28;20084;-51
2021/03/29 03:55:36;;;;;;;8.65;2.42;;;;;;;12.80;80.69;100785.41;5072515;28;20083;-49
2021/03/29 03:58:03;;;;;;;11.25;1.88;;;;;;;12.79;80.90;100790.16;5072525;28;20072;-49
2021/03/29 04:00:30;;;;;;;11.38;2.88;;;;;;;12.81;80.97;100779.47;5073412;28;20389;-48
2021/03/29 04:02:56;;;;;;;8.90;1.70;;;;;;;12.80;80.85;100800.13;5072665;28;20040;-48
2021/03/29 04:05:23;;;;;;;9.30;2.05;;;;;;;12.80;81.03;100790.97;5072814;28;20579;-51
2021/03/29 04:08:11;;;;;;;7.45;1.88;;;;;;;12.79;81.04;100781.81;5072384;28;20048;-48
2021/03/29 04:10:49;;;;;;;6.13;1.83;;;;;;;12.78;80.95;100796.91;5072010;28;20086;-51
2021/03/29 04:15:56;;;;;;;8.43;1.83;;;;;;;12.79;81.01;100804.03;5072202;28;20048;-50
2021/03/29 04:18:23;;;;;;;5.78;1.60;;;;;;;12.81;80.80;100798.16;5072292;28;20041;-49
2021/03/29 04:20:51;;;;;;;11.35;1.50;;;;;;;12.82;80.89;100788.63;5072643;28;20072;-47
2021/03/29 04:23:19;;;;;;;9.73;2.03;;;;;;;12.81;80.78;100807.25;5072227;28;20501;-48
2021/03/29 04:25:46;;;;;;;6.50;2.00;;;;;;;12.82;80.77;100810.84;5067007;28;20510;-50
2021/03/29 04:28:12;;;;;;;7.15;2.13;;;;;;;12.81;80.90;100812.03;5071884;28;20127;-51
2021/03/29 04:30:38;;;;;;;8.73;2.08;;;;;;;12.79;80.82;100803.22;5072136;28;20053;-47
2021/03/29 04:33:06;;;;;;;5.65;1.15;;;;;;;12.78;80.73;100807.19;5072234;28;20062;-48
2021/03/29 04:35:32;;;;;;;6.15;1.65;;;;;;;12.79;80.76;100814.34;5071907;28;20123;-47
2021/03/29 04:37:58;;;;;;;6.28;2.08;;;;;;;12.79;80.85;100817.94;5071882;28;20131;-49
2021/03/29 04:40:26;;;;;;;8.48;2.00;;;;;;;12.79;80.85;100823.50;5071955;28;20135;-48
2021/03/29 04:42:53;;;;;;;5.20;1.48;;;;;;;12.80;80.94;100833.47;5071948;28;20041;-52
2021/03/29 04:45:21;;;;;;;8.25;1.70;;;;;;;12.82;80.71;100828.34;5071572;28;20041;-50
2021/03/29 04:47:47;;;;;;;5.18;1.33;;;;;;;12.83;80.65;100824.41;5072147;28;20076;-49
2021/03/29 04:50:21;;;;;;;19.92;2.97;;;;;;;12.84;80.60;100826.00;5071567;28;20090;-49
2021/03/29 04:52:47;;;;;;;17.10;2.33;;;;;;;12.81;80.85;100837.81;5071766;28;20079;-49
2021/03/29 04:55:16;;;;;;;8.52;1.70;;;;;;;12.81;80.78;100835.06;5071554;28;20087;-47
2021/03/29 04:57:43;;;;;;;3.83;1.25;;;;;;;12.81;80.85;100843.38;5071394;28;20068;-50
2021/03/29 05:00:10;;;;;;;5.85;1.58;;;;;;;12.81;80.66;100837.81;5070211;28;20076;-49
2021/03/29 05:02:37;;;;;;;5.32;1.13;;;;;;;12.81;80.78;100846.16;5070356;28;20468;-49
2021/03/29 05:05:05;;;;;;;10.00;2.28;;;;;;;12.79;80.94;100837.38;5071710;28;20064;-48
2021/03/29 05:07:31;;;;;;;8.05;1.27;;;;;;;12.81;80.92;100846.16;5071061;28;20482;-49
2021/03/29 05:09:58;;;;;;;4.53;0.82;;;;;;;12.83;80.62;100843.03;5067893;28;20061;-50
2021/03/29 05:12:24;;;;;;;6.10;0.95;;;;;;;12.83;80.52;100848.59;5051664;28;20041;-48
2021/03/29 05:14:51;;;;;;;2.90;0.93;;;;;;;12.84;80.76;100844.63;5047938;28;20049;-52
2021/03/29 05:17:19;;;;;;;2.97;0.80;;;;;;;12.84;80.67;100842.69;5053060;28;20052;-48
2021/03/29 05:19:46;;;;;;;10.20;2.58;;;;;;;12.86;80.85;100849.84;5069980;28;20045;-52
2021/03/29 05:22:12;;;;;;;2.78;0.88;;;;;;;12.86;80.47;100860.97;5069277;28;20604;-50
2021/03/29 05:24:38;;;;;;;4.03;1.10;;;;;;;12.88;80.81;100858.63;5057726;28;20115;-49
2021/03/29 05:27:05;;;;;;;4.43;1.00;;;;;;;12.86;80.53;100864.56;5069455;28;20040;-52
2021/03/29 05:29:42;;;;;;;5.32;1.60;;;;;;;12.86;80.61;100860.97;5067668;28;20128;-49
2021/03/29 05:32:17;;;;;;;7.85;1.48;;;;;;;12.84;80.86;100870.47;5069172;28;20505;-54
2021/03/29 05:34:46;;;;;;;5.78;1.00;;;;;;;12.83;80.91;100868.88;5069331;28;20052;-51
2021/03/29 05:37:14;;;;;;;11.00;2.08;;;;;;;12.83;80.80;100865.28;5068416;28;20083;-51
2021/03/29 05:39:40;;;;;;;5.63;1.35;;;;;;;12.83;80.80;100868.88;5068233;28;20466;-49
2021/03/29 05:42:08;;;;;;;7.22;1.13;;;;;;;12.81;80.70;100865.63;5070073;28;20072;-48
2021/03/29 05:44:36;;;;;;;4.82;1.10;;;;;;;12.81;80.70;100867.59;5068571;28;20098;-51
2021/03/29 05:47:04;;;;;;;8.90;1.90;;;;;;;12.82;80.62;100858.09;5068347;28;20094;-48
2021/03/29 05:49:31;;;;;;;3.95;1.08;;;;;;;12.82;80.68;100881.13;5070067;28;20456;-49
2021/03/29 05:51:58;;;;;;;3.78;1.20;;;;;;;12.85;80.68;100876.84;5067358;28;20125;-48
2021/03/29 05:54:25;;;;;;;4.82;1.48;;;;;;;12.84;80.77;100872.44;5068670;28;20040;-49
2021/03/29 05:56:52;;;;;;;5.32;1.40;;;;;;;12.85;80.68;100890.72;5069621;28;20041;-49
2021/03/29 05:59:26;;;;;;;4.00;1.40;;;;;;;12.83;80.60;100877.19;5067130;28;20516;-49
2021/03/29 06:01:54;;;;;;;9.13;1.35;;;;;;;12.83;80.70;100877.19;5049934;28;20501;-51
2021/03/29 06:04:44;;;;;;;8.25;2.17;;;;;;;12.83;80.89;100885.53;5062673;28;20032;-48
2021/03/29 06:07:19;;;;;;;6.38;1.45;;;;;;;12.84;80.94;100900.22;5068479;28;20080;-53
2021/03/29 06:09:47;;;;;;;5.15;1.40;;;;;;;12.83;80.74;100910.53;5084653;28;20102;-49
2021/03/29 06:12:15;;;;;;;6.18;2.13;;;;;;;12.83;80.79;100899.44;5055024;28;20144;-48
2021/03/29 06:14:44;;;;;;;13.02;1.40;;;;;;;12.81;80.64;100915.63;5053447;28;20119;-51
2021/03/29 06:17:14;;;;;;;8.07;1.63;;;;;;;12.83;80.57;100921.66;5073070;28;20493;-49
2021/03/29 06:19:58;;;;;;;7.55;1.23;;;;;;;12.81;80.87;100915.63;5072542;28;20076;-49
2021/03/29 06:22:35;;;;;;;9.70;1.38;;;;;;;12.85;80.75;100924.06;5071418;28;20106;-51
2021/03/29 06:25:27;;;;;;;5.95;1.98;;;;;;;12.84;80.72;100920.47;5073194;28;20166;-49
2021/03/29 06:27:57;;;;;;;8.45;3.42;;;;;;;12.86;80.71;100924.88;5068342;28;20131;-52
2021/03/29 06:30:28;;;;;;;4.00;1.25;;;;;;;12.84;80.66;100930.78;5072441;28;20139;-49
2021/03/29 06:33:02;;;;;;;3.42;1.52;;;;;;;12.84;80.92;100923.25;5072814;28;20086;-48
2021/03/29 06:35:28;;;;;;;8.10;1.60;;;;;;;12.86;80.81;100930.44;5071922;28;20450;-50
2021/03/29 06:38:15;;;;;;;10.10;2.03;;;;;;;12.83;80.82;100935.56;5071937;28;20094;-51
2021/03/29 06:40:46;;;;;;;5.20;1.08;;;;;;;12.88;80.69;100928.09;5071402;28;20045;-50
2021/03/29 06:43:24;;;;;;;10.95;2.60;;;;;;;12.87;80.85;100948.75;5062957;28;20048;-48
2021/03/29 06:46:04;;;;;;;7.47;1.77;;;;;;;12.84;80.85;100948.25;5071760;28;20083;-48
2021/03/29 06:48:35;;;;;;;7.57;2.38;;;;;;;12.88;80.88;100947.56;5064540;28;20494;-54
2021/03/29 06:51:08;;;;;;;8.93;2.58;;;;;;;12.87;80.73;100955.06;5067754;28;20048;-50
2021/03/29 06:53:34;;;;;;;;;;;;;;;12.85;80.91;100946.28;5072630;28;20128;-52
2021/03/29 06:56:26;;;;;;;7.90;1.67;;;;;;;12.86;80.66;100947.91;5071881;28;19924;-50
2021/03/29 06:58:55;;;;;;;5.57;1.63;;;;;;;12.86;80.69;100953.47;5071994;28;20075;-50
2021/03/29 07:01:25;;;;;;;6.22;1.92;;;;;;;12.89;80.85;100957.53;5071441;28;20080;-49
2021/03/29 07:03:54;;;;;;;5.00;1.30;;;;;;;12.90;80.79;100964.66;5071853;28;20080;-51
2021/03/29 07:06:26;;;;;;;5.00;1.33;;;;;;;12.92;80.81;100959.59;5071182;28;20190;-51
2021/03/29 07:09:04;;;;;;;9.13;1.40;;;;;;;12.96;80.77;100966.03;5071069;28;20044;-52
2021/03/29 07:11:33;;;;;;;3.05;1.35;;;;;;;12.98;80.70;100974.81;5070450;28;20051;-49
2021/03/29 07:14:01;;;;;;;4.97;1.00;;;;;;;13.00;80.65;100966.97;5065232;28;20128;-52
2021/03/29 07:16:29;;;;;;;6.85;1.58;;;;;;;13.03;80.79;100980.13;5069121;28;20040;-50
2021/03/29 07:18:57;;;;;;;8.65;1.67;;;;;;;13.04;80.52;100987.31;5070060;28;20127;-50
2021/03/29 07:21:25;;;;;;;5.90;1.50;;;;;;;13.04;80.47;100992.88;5068988;28;20547;-52
2021/03/29 07:23:52;;;;;;;5.95;1.30;;;;;;;13.06;80.53;101001.66;5069917;28;20072;-52
2021/03/29 07:26:41;;;;;;;6.03;1.17;;;;;;;13.04;80.64;101002.00;5069979;28;20048;-51
2021/03/29 07:29:18;;;;;;;12.95;1.73;;;;;;;13.08;80.47;101010.50;5069898;28;20131;-50
2021/03/29 07:31:47;;;;;;;3.35;0.88;;;;;;;13.09;80.47;101006.53;5068733;28;20497;-53
2021/03/29 07:34:14;;;;;;;2.50;0.90;;;;;;;13.09;80.40;101021.25;5069393;28;20040;-53
2021/03/29 07:36:44;;;;;;;3.40;0.93;;;;;;;13.09;80.30;101021.25;5057043;28;20085;-51
2021/03/29 07:39:12;;;;;;;5.28;0.95;;;;;;;13.10;80.15;101024.84;5042274;28;20033;-55
2021/03/29 07:41:39;;;;;;;4.70;0.88;;;;;;;13.09;80.28;101029.59;5018922;28;20080;-50
2021/03/29 07:44:12;;;;;;;5.30;0.70;;;;;;;13.08;80.28;101038.28;5047050;28;20113;-53
2021/03/29 07:46:42;;;;;;;3.35;0.93;;;;;;;13.09;80.25;101048.22;5046410;28;20080;-53
2021/03/29 07:49:46;;;;;;;2.67;0.80;;;;;;;13.07;80.52;101047.78;5045093;28;20049;-54
2021/03/29 07:52:31;;;;;;;3.35;0.70;;;;;;;13.08;80.25;101049.41;5066961;28;20455;-51
2021/03/29 07:54:59;;;;;;;4.15;0.60;;;;;;;13.08;80.21;101061.31;5058818;28;20779;-52
2021/03/29 07:57:44;;;;;;;4.15;0.65;;;;;;;13.09;80.23;101062.13;5048797;28;20136;-54
2021/03/29 08:00:30;;;;;;;1.45;0.80;;;;;;;13.09;80.23;101062.13;5042259;28;20110;-51
2021/03/29 08:02:58;;;;;;;2.75;0.50;;;;;;;13.08;80.21;101080.75;5036651;28;20081;-50
2021/03/29 08:05:45;;;;;;;2.47;0.93;;;;;;;13.08;80.14;101077.22;5046161;28;20038;-51
2021/03/29 08:08:23;;;;;;;4.05;0.50;;;;;;;13.10;80.16;101070.13;5046758;28;20563;-52
2021/03/29 08:11:07;;;;;;;5.00;0.73;;;;;;;13.11;80.20;101088.41;5039704;28;20127;-53
2021/03/29 08:13:37;;;;;;;3.88;0.68;;;;;;;13.12;80.07;101105.91;5046833;28;20060;-51
2021/03/29 08:16:09;;;;;;;1.63;0.73;;;;;;;13.17;80.01;101108.41;5046462;28;20048;-53
2021/03/29 08:19:06;;;;;;;3.20;0.63;;;;;;;13.21;79.96;101110.13;5046063;28;20076;-50
2021/03/29 08:21:57;;;;;;;3.95;0.73;;;;;;;13.27;79.94;101119.03;5048097;28;20041;-49
2021/03/29 08:24:36;;;;;;;4.88;0.88;;;;;;;13.31;79.89;101097.72;5033571;28;20151;-51
2021/03/29 08:27:19;;;;;;;1.77;0.50;;;;;;;13.37;79.66;101112.94;5026639;28;20099;-55
2021/03/29 08:29:48;;;;;;;2.70;1.25;;;;;;;13.45;79.79;101125.91;5046221;28;20102;-55
2021/03/29 08:32:31;;;;;;;1.98;0.55;;;;;;;13.48;79.51;101130.75;5047531;28;20087;-53
2021/03/29 08:35:09;;;;;;;1.45;0.65;;;;;;;13.53;79.52;101133.28;5030885;28;20052;-49
2021/03/29 08:37:40;;;;;;;2.83;0.82;;;;;;;13.56;79.27;101126.19;5039287;28;20052;-50
2021/03/29 08:40:11;;;;;;;2.25;0.73;;;;;;;13.59;79.08;101134.66;5035476;28;20140;-50
2021/03/29 08:42:39;;;;;;;3.22;1.85;;;;;;;13.63;79.16;101126.41;5042343;28;20627;-51
2021/03/29 08:45:11;;;;;;;2.22;0.52;;;;;;;13.67;79.09;101135.63;5051806;28;20123;-54
2021/03/29 08:47:41;;;;;;;4.40;1.45;;;;;;;13.72;78.97;101130.63;5019432;28;20266;-53
2021/03/29 08:50:10;;;;;;;4.15;0.80;;;;;;;13.82;78.98;101146.78;5052412;28;20413;-57
2021/03/29 08:52:47;;;;;;;0.95;0.40;;;;;;;13.88;78.84;101139.81;5049523;28;20124;-53
2021/03/29 08:55:22;;;;;;;3.25;0.50;;;;;;;13.93;78.52;101141.50;5067783;28;20122;-53
2021/03/29 08:57:51;;;;;;;1.33;0.50;;;;;;;14.03;78.55;101136.22;5006599;28;20640;-54
2021/03/29 09:00:20;;;;;;;1.60;0.50;;;;;;;14.06;78.26;101151.38;5046027;28;20525;-55
2021/03/29 09:02:47;;;;;;;4.63;0.70;;;;;;;14.14;78.00;101155.19;5060397;28;20048;-54
2021/03/29 09:05:16;;;;;;;5.18;0.65;;;;;;;14.20;77.87;101150.94;5060017;28;20048;-52
2021/03/29 09:08:02;;;;;;;1.73;1.00;;;;;;;14.24;77.35;101163.00;5057694;28;20079;-53
2021/03/29 09:10:36;;;;;;;2.20;0.68;;;;;;;14.37;77.41;101167.34;5046545;28;20104;-56
2021/03/29 09:13:03;;;;;;;;;;;;;;;14.40;76.38;101156.25;5044973;28;20141;-58
2021/03/29 09:15:38;;;;;;;1.25;0.50;;;;;;;14.44;76.53;101162.75;5043891;28;19931;-54
2021/03/29 09:18:07;;;;;;;1.33;0.50;;;;;;;14.57;76.87;101160.66;5050219;28;20355;-52
2021/03/29 09:20:52;;;;;;;3.15;0.70;;;;;;;14.92;76.47;101171.81;5039628;28;20128;-52
2021/03/29 09:23:22;;;;;;;3.05;1.30;;;;;;;15.09;76.46;101174.19;5054735;28;20052;-52
2021/03/29 09:25:52;;;;;;;3.47;0.90;;;;;;;15.17;76.14;101179.53;5049269;28;20797;-53
2021/03/29 09:31:21;;;;;;;1.80;0.60;;;;;;;15.41;75.71;101197.19;5051076;28;20064;-51
2021/03/29 09:33:49;;;;;;;2.15;0.52;;;;;;;15.48;75.04;101178.66;5043641;28;20056;-53
2021/03/29 09:36:19;;;;;;;2.90;0.82;;;;;;;15.46;74.42;101185.78;5043279;28;20052;-49
2021/03/29 09:38:53;;;;;;;6.05;0.90;;;;;;;15.51;74.56;101177.91;5041360;28;20052;-49
2021/03/29 09:41:22;;;;;;;5.63;1.00;;;;;;;15.81;74.65;101180.88;5049324;28;20052;-50
2021/03/29 09:43:51;;;;;;;4.35;0.82;;;;;;;15.85;73.38;101181.75;5050839;28;20425;-50
2021/03/29 09:46:26;;;;;;;1.63;1.02;;;;;;;16.02;72.93;101175.69;5061916;28;21053;-50
2021/03/29 09:49:15;;;;;;;2.55;1.05;;;;;;;16.02;72.43;101191.66;5048714;28;20397;-48
2021/03/29 09:51:47;;;;;;;4.82;1.27;;;;;;;15.97;72.19;101187.16;5046386;28;20059;-49
2021/03/29 09:54:22;;;;;;;5.35;1.02;;;;;;;15.92;72.07;101209.81;5052460;28;20037;-49
2021/03/29 09:56:48;;;;;;;5.28;0.98;;;;;;;15.82;72.55;101210.41;5049531;28;20077;-48
2021/03/29 09:59:31;;;;;;;3.20;1.17;;;;;;;15.79;72.16;101219.53;5052097;28;20049;-47
2021/03/29 10:01:58;;;;;;;6.15;1.50;;;;;;;15.83;72.68;101228.81;5053358;28;20588;-48
2021/03/29 10:04:25;;;;;;;4.30;0.95;;;;;;;15.75;72.46;101227.81;5058617;28;20655;-54
2021/03/29 10:06:58;;;;;;;5.78;1.70;;;;;;;15.70;72.08;101230.13;5055402;28;20131;-50
2021/03/29 10:09:34;;;;;;;3.05;0.95;;;;;;;15.69;71.62;101236.88;5042640;28;20173;-54
2021/03/29 10:12:04;;;;;;;3.92;1.08;;;;;;;15.75;72.20;101238.22;5043624;28;20065;-51
2021/03/29 10:14:40;;;;;;;4.50;1.20;;;;;;;15.72;72.14;101245.34;5042703;28;20077;-52
2021/03/29 10:17:18;;;;;;;5.15;1.00;;;;;;;15.64;71.54;101254.75;5058983;28;20128;-54
2021/03/29 10:19:45;;;;;;;8.15;1.88;;;;;;;15.66;72.12;101265.53;5045836;28;20103;-49
2021/03/29 10:22:19;;;;;;;4.90;1.20;;;;;;;15.66;71.62;101271.09;5059074;28;20073;-52
2021/03/29 10:25:22;;;;;;;6.03;1.38;;;;;;;15.64;71.66;101263.13;5054842;28;20048;-54
2021/03/29 10:27:53;;;;;;;6.63;1.38;;;;;;;15.71;71.95;101270.81;5048074;28;20059;-52
2021/03/29 10:30:19;;;;;;;5.10;1.52;;;;;;;15.74;71.99;101282.06;5048082;28;20371;-54
2021/03/29 10:32:49;;;;;;;9.45;2.22;;;;;;;15.83;71.86;101276.25;5054764;28;20067;-55
2021/03/29 10:35:16;;;;;;;6.30;1.80;;;;;;;15.87;71.88;101273.53;5052470;28;20043;-54
2021/03/29 10:37:42;;;;;;;6.30;2.33;;;;;;;15.86;71.91;101281.09;5062464;28;20043;-54
2021/03/29 10:40:09;;;;;;;8.93;1.77;;;;;;;15.86;71.71;101278.28;5047101;28;20052;-54
2021/03/29 10:42:37;;;;;;;4.93;1.35;;;;;;;15.83;71.49;101290.22;5043333;28;20065;-55
2021/03/29 10:45:05;;;;;;;4.00;1.30;;;;;;;15.83;71.33;101285.44;5044686;28;20550;-53
2021/03/29 10:47:32;;;;;;;8.73;1.48;;;;;;;15.87;71.13;101282.72;5041958;28;20138;-55
2021/03/29 10:49:58;;;;;;;7.00;2.22;;;;;;;16.00;70.95;101286.16;5048415;28;20107;-55
2021/03/29 10:52:24;;;;;;;7.22;1.67;;;;;;;16.03;71.09;101305.78;5050092;28;20117;-54
2021/03/29 10:54:51;;;;;;;9.55;1.90;;;;;;;16.07;70.86;101289.13;5050996;28;20041;-53
2021/03/29 10:57:18;;;;;;;6.70;1.38;;;;;;;16.14;70.72;101295.63;5050579;28;20087;-54
2021/03/29 10:59:44;;;;;;;5.43;1.95;;;;;;;16.14;70.21;101295.63;5046617;28;20052;-55
2021/03/29 11:02:12;;;;;;;5.22;1.50;;;;;;;16.12;70.21;101302.78;5051595;28;20133;-53
2021/03/29 11:04:38;;;;;;;5.10;1.55;;;;;;;16.18;70.26;101295.69;5049795;28;20045;-53
2021/03/29 11:07:04;;;;;;;5.82;1.40;;;;;;;16.27;70.18;101299.06;5051126;28;20123;-54
2021/03/29 11:09:31;;;;;;;6.43;1.55;;;;;;;16.33;69.89;101304.00;5043750;28;20439;-56
2021/03/29 11:11:57;;;;;;;7.75;1.55;;;;;;;16.35;69.77;101296.03;5033570;28;20124;-55
2021/03/29 11:14:24;;;;;;;5.45;1.13;;;;;;;16.41;69.59;101304.94;5049701;28;20407;-54
2021/03/29 11:16:52;;;;;;;5.10;0.88;;;;;;;16.44;69.31;101304.97;5051290;28;20148;-55
2021/03/29 11:19:19;;;;;;;4.05;1.17;;;;;;;16.39;68.99;101298.88;5050476;28;20402;-58
2021/03/29 11:21:46;;;;;;;8.32;1.27;;;;;;;16.29;69.04;101313.47;5050380;28;20095;-52
2021/03/29 11:24:17;;;;;;;4.78;1.10;;;;;;;16.08;69.05;101313.88;5051407;28;20096;-54
2021/03/29 11:26:43;;;;;;;10.25;2.22;;;;;;;15.97;69.51;101315.63;5032223;28;20096;-53
2021/03/29 11:29:13;;;;;;;4.72;1.30;;;;;;;15.87;69.31;101298.66;5050479;28;20136;-53
2021/03/29 11:31:41;;;;;;;3.45;1.05;;;;;;;15.82;69.65;101316.53;5048950;28;20052;-54
2021/03/29 11:34:09;;;;;;;5.72;1.67;;;;;;;15.84;69.76;101328.13;5048413;28;20123;-53
2021/03/29 11:36:35;;;;;;;5.53;1.33;;;;;;;15.91;69.56;101314.34;5056914;28;20156;-52
2021/03/29 11:39:05;;;;;;;14.52;4.53;;;;;;;16.00;69.35;101308.50;5044106;28;20045;-51
2021/03/29 11:41:31;;;;;;;4.07;1.17;;;;;;;16.07;69.41;101312.25;5058839;28;20094;-50
2021/03/29 11:43:58;;;;;;;4.63;1.60;;;;;;;16.19;69.33;101316.88;5082001;28;20052;-51
2021/03/29 11:46:26;;;;;;;8.00;2.35;;;;;;;16.24;68.91;101309.00;5042007;28;20528;-54
2021/03/29 11:48:53;;;;;;;5.88;1.88;;;;;;;16.17;68.69;101322.84;5061503;28;20094;-54